Time;durP1;ratioP1;P1;durP2;ratioP2;P2;SDS_P1;SDS_P2;PMS_P1;PMS_P2;Temp;Humidity;BMP_temperature;BMP_pressure;BME280_temperature;BME280_humidity;BME280_pressure;Samples;Min_cycle;Max_cycle;Signal;HPM_P1;HPM_P2
2021/12/27 00:00:17;;;;;;;34.47;12.55;;;;;;;16.51;46.51;98863.69;4415030;32;20114;-68
2021/12/27 00:02:44;;;;;;;35.88;13.80;;;;;;;16.53;45.85;98855.44;4418454;32;20046;-68
2021/12/27 00:05:10;;;;;;;36.13;13.45;;;;;;;16.37;46.59;98858.31;4419774;32;20093;-68
2021/12/27 00:07:35;;;;;;;35.28;13.40;;;;;;;16.41;46.32;98856.00;4421512;32;20099;-68
2021/12/27 00:10:02;;;;;;;37.50;12.98;;;;;;;16.35;46.36;98853.16;4419501;32;20109;-68
2021/12/27 00:12:29;;;;;;;37.13;13.57;;;;;;;16.37;46.42;98852.66;4419032;32;20152;-68
2021/12/27 00:14:55;;;;;;;39.78;14.77;;;;;;;16.33;46.52;98837.97;4419251;32;20072;-68
2021/12/27 00:17:20;;;;;;;36.88;14.23;;;;;;;16.37;46.42;98842.06;4416432;32;20070;-68
2021/12/27 00:19:47;;;;;;;42.33;14.87;;;;;;;16.28;46.68;98831.03;4417670;32;20077;-68
2021/12/27 00:22:13;;;;;;;46.03;14.50;;;;;;;16.25;46.63;98834.91;4415875;32;20163;-68
2021/12/27 00:24:38;;;;;;;46.45;13.70;;;;;;;16.25;46.36;98832.06;4419156;32;20116;-68
2021/12/27 00:27:06;;;;;;;43.47;14.50;;;;;;;16.38;46.11;98828.66;4420103;32;20042;-68
2021/12/27 00:29:32;;;;;;;47.08;15.05;;;;;;;16.25;46.65;98828.44;4419828;32;20073;-68
2021/12/27 00:31:58;;;;;;;51.45;15.88;;;;;;;16.23;46.94;98823.28;4418149;32;20669;-68
2021/12/27 00:34:24;;;;;;;61.35;14.27;;;;;;;16.29;47.09;98817.59;4419446;32;20034;-68
2021/12/27 00:36:50;;;;;;;53.58;16.20;;;;;;;16.19;46.91;98819.97;4420276;32;20077;-68
2021/12/27 00:39:16;;;;;;;72.28;13.38;;;;;;;16.35;47.00;98810.59;4416424;32;20396;-68
2021/12/27 00:41:42;;;;;;;73.60;14.77;;;;;;;16.25;47.35;98820.72;4419532;32;20099;-68
2021/12/27 00:44:08;;;;;;;68.60;15.00;;;;;;;16.25;47.27;98820.72;4419559;32;20045;-68
2021/12/27 00:46:33;;;;;;;90.22;14.55;;;;;;;16.35;47.10;98810.59;4422070;32;20073;-68
2021/12/27 00:48:59;;;;;;;80.32;15.60;;;;;;;16.35;47.21;98802.06;4419976;32;20162;-68
2021/12/27 00:51:25;;;;;;;59.17;15.07;;;;;;;16.36;47.01;98797.19;4418877;32;20332;-68
2021/12/27 00:53:51;;;;;;;77.12;15.27;;;;;;;16.41;47.25;98802.81;4413869;32;20547;-68
2021/12/27 00:56:17;;;;;;;95.38;14.68;;;;;;;16.45;47.30;98806.19;4421953;32;20038;-68
2021/12/27 00:58:42;;;;;;;68.25;15.93;;;;;;;16.43;46.89;98810.81;4418747;32;20045;-68
2021/12/27 01:01:08;;;;;;;67.30;14.75;;;;;;;16.42;47.37;98803.59;4417529;32;20105;-68
2021/12/27 01:03:47;;;;;;;67.22;15.20;;;;;;;16.40;47.13;98806.97;4423539;32;20465;-68
2021/12/27 01:06:27;;;;;;;63.70;16.02;;;;;;;16.33;47.51;98799.00;4415337;32;20049;-68
2021/12/27 01:09:00;;;;;;;54.08;13.68;;;;;;;16.48;47.40;98795.84;4421735;32;20126;-68
2021/12/27 01:14:10;;;;;;;87.37;17.48;;;;;;;16.37;47.44;98796.66;3979000;32;15143480;-68
2021/12/27 01:16:36;;;;;;;74.62;14.68;;;;;;;16.37;47.44;98796.66;4432367;32;20122;-68
2021/12/27 01:19:02;;;;;;;67.93;15.63;;;;;;;16.18;47.46;98804.25;4429605;32;20601;-68
2021/12/27 01:21:28;;;;;;;54.42;14.20;;;;;;;16.19;47.56;98805.00;4429028;32;20103;-68
2021/12/27 01:23:55;;;;;;;54.20;13.55;;;;;;;16.02;47.88;98799.41;4429062;32;20033;-68
2021/12/27 01:26:21;;;;;;;53.03;13.75;;;;;;;16.28;47.33;98796.97;4430368;32;20422;-68
2021/12/27 01:28:47;;;;;;;98.62;15.32;;;;;;;16.34;47.36;98783.50;4430942;32;20077;-68
2021/12/27 01:31:13;;;;;;;62.25;14.87;;;;;;;16.26;47.38;98782.50;4433082;32;20072;-68
2021/12/27 01:33:40;;;;;;;67.62;14.57;;;;;;;16.25;47.62;98772.47;4429481;32;20454;-68
2021/12/27 01:36:07;;;;;;;89.62;15.30;;;;;;;16.33;47.48;98767.78;4415723;32;20065;-68
2021/12/27 01:38:36;;;;;;;61.65;15.60;;;;;;;16.40;47.59;98774.94;4428169;32;20551;-68
2021/12/27 01:41:03;;;;;;;75.57;14.18;;;;;;;16.32;47.73;98774.75;4432759;32;20037;-68
2021/12/27 01:43:32;;;;;;;62.03;13.62;;;;;;;16.41;47.53;98762.31;4427573;32;20074;-68
2021/12/27 01:46:03;;;;;;;73.12;14.85;;;;;;;16.63;47.34;98760.09;4429581;32;20085;-68
2021/12/27 01:48:36;;;;;;;58.78;15.18;;;;;;;16.70;46.81;98758.78;4430916;32;20461;-67
2021/12/27 01:51:02;;;;;;;55.22;13.45;;;;;;;16.55;47.14;98764.84;4428363;32;20055;-68
2021/12/27 01:53:30;;;;;;;45.60;14.23;;;;;;;16.48;47.39;98759.72;4428955;32;20064;-68
2021/12/27 01:55:57;;;;;;;48.25;14.87;;;;;;;16.71;47.41;98748.94;4431292;32;20053;-68
2021/12/27 01:58:23;;;;;;;39.67;13.15;;;;;;;16.70;47.22;98741.75;4429514;32;20304;-68
2021/12/27 02:00:57;;;;;;;44.72;13.82;;;;;;;16.69;47.16;98749.47;4429180;32;20069;-68
2021/12/27 02:03:25;;;;;;;45.55;15.05;;;;;;;16.80;46.64;98751.47;4433648;32;20053;-68
2021/12/27 02:05:51;;;;;;;50.00;14.40;;;;;;;16.72;47.11;98756.94;4437077;32;20037;-68
2021/12/27 02:08:17;;;;;;;46.58;14.05;;;;;;;16.56;47.00;98757.84;4429930;32;20409;-68
2021/12/27 02:10:44;;;;;;;45.50;14.77;;;;;;;16.68;46.73;98758.53;4428740;32;20076;-68
2021/12/27 02:13:11;;;;;;;44.70;14.87;;;;;;;16.66;46.79;98753.38;4429778;32;20095;-68
2021/12/27 02:15:37;;;;;;;44.28;13.95;;;;;;;16.82;46.80;98758.19;4433669;32;20037;-68
2021/12/27 02:18:04;;;;;;;42.67;14.75;;;;;;;16.74;47.14;98759.25;4430130;32;20531;-68
2021/12/27 02:20:33;;;;;;;48.35;14.05;;;;;;;16.91;46.75;98752.13;4428416;32;20625;-68
2021/12/27 02:23:02;;;;;;;43.25;15.45;;;;;;;17.10;46.46;98750.19;4428613;32;20073;-68
2021/12/27 02:25:30;;;;;;;45.10;15.02;;;;;;;16.92;46.71;98756.53;4421519;32;20105;-68
2021/12/27 02:27:58;;;;;;;48.10;16.33;;;;;;;16.75;46.41;98752.28;4423553;32;20025;-68
2021/12/27 02:30:24;;;;;;;38.75;13.60;;;;;;;16.86;46.85;98747.28;4421095;32;20075;-68
2021/12/27 02:32:54;;;;;;;44.35;14.85;;;;;;;16.69;46.90;98752.31;4420131;32;20544;-68
2021/12/27 02:35:23;;;;;;;44.22;14.93;;;;;;;16.96;46.75;98754.16;4421033;32;20061;-68
2021/12/27 02:37:50;;;;;;;37.90;14.43;;;;;;;17.04;46.45;98748.69;4415941;32;20304;-68
2021/12/27 02:40:16;;;;;;;37.95;14.48;;;;;;;16.89;46.46;98746.22;4416725;32;20064;-68
2021/12/27 02:45:42;;;;;;;35.50;12.95;;;;;;;17.37;45.78;98740.59;3985596;32;15021927;-68
2021/12/27 02:48:10;;;;;;;37.08;14.13;;;;;;;17.37;45.78;98740.59;4429188;32;20132;-69
2021/12/27 02:50:38;;;;;;;37.50;14.15;;;;;;;16.74;46.80;98731.62;4429733;32;20034;-68
2021/12/27 02:53:05;;;;;;;46.97;14.45;;;;;;;16.88;46.77;98729.72;4428714;32;20430;-67
2021/12/27 02:55:31;;;;;;;41.17;14.15;;;;;;;16.87;46.51;98723.25;4430002;32;20543;-68
2021/12/27 02:57:57;;;;;;;40.53;14.57;;;;;;;16.75;46.70;98727.50;4429459;32;20053;-68
2021/12/27 03:00:27;;;;;;;41.17;13.68;;;;;;;16.80;46.26;98715.31;4435249;32;20449;-68
2021/12/27 03:02:54;;;;;;;37.42;13.77;;;;;;;16.92;46.06;98716.75;4432227;32;20548;-68
2021/12/27 03:05:22;;;;;;;39.63;14.75;;;;;;;16.75;46.60;98718.22;4434372;32;20088;-68
2021/12/27 03:07:49;;;;;;;39.65;14.18;;;;;;;16.90;46.66;98719.34;4428146;32;20438;-68
2021/12/27 03:10:19;;;;;;;31.67;13.32;;;;;;;16.97;46.86;98718.75;4428108;32;20436;-68
2021/12/27 03:12:46;;;;;;;37.13;13.48;;;;;;;16.88;46.13;98709.81;4432222;32;20334;-68
2021/12/27 03:15:14;;;;;;;39.83;13.65;;;;;;;16.90;46.20;98710.84;4430254;32;20376;-68
2021/12/27 03:17:43;;;;;;;35.78;13.13;;;;;;;17.05;46.26;98719.72;4433190;32;20414;-68
2021/12/27 03:20:11;;;;;;;42.58;13.48;;;;;;;17.10;46.03;98707.56;4429467;32;20109;-68
2021/12/27 03:22:38;;;;;;;42.28;14.20;;;;;;;17.10;45.88;98706.78;4429562;32;20540;-68
2021/12/27 03:25:05;;;;;;;39.70;13.88;;;;;;;16.87;46.23;98700.53;4428641;32;20250;-68
2021/12/27 03:27:31;;;;;;;39.00;14.95;;;;;;;16.99;46.53;98704.81;4433533;32;20037;-68
2021/12/27 03:29:56;;;;;;;34.92;14.07;;;;;;;16.83;46.25;98699.28;4428808;32;20159;-68
2021/12/27 03:32:23;;;;;;;36.90;13.55;;;;;;;16.95;46.38;98700.72;4428379;32;20101;-68
2021/12/27 03:35:04;;;;;;;34.70;13.48;;;;;;;16.98;46.37;98689.06;4431850;32;20107;-68
2021/12/27 03:37:30;;;;;;;36.88;14.52;;;;;;;16.96;46.29;98690.87;4432950;32;20132;-68
2021/12/27 03:39:55;;;;;;;37.50;13.35;;;;;;;17.15;46.30;98691.75;4429740;32;20033;-69
2021/12/27 03:42:22;;;;;;;38.63;14.45;;;;;;;17.16;45.86;98693.28;4432818;32;20116;-69
2021/12/27 03:44:48;;;;;;;44.60;15.05;;;;;;;17.12;45.88;98692.81;4436316;32;20141;-68
2021/12/27 03:47:14;;;;;;;41.37;14.48;;;;;;;17.00;45.77;98694.22;4428229;32;20042;-68
2021/12/27 03:49:40;;;;;;;42.72;15.80;;;;;;;17.02;46.12;98683.06;4428309;32;20073;-67
2021/12/27 03:52:05;;;;;;;40.83;15.32;;;;;;;17.19;45.82;98683.69;4428464;32;20532;-67
2021/12/27 03:54:31;;;;;;;45.92;16.05;;;;;;;16.99;45.83;98684.91;4432007;32;20234;-67
2021/12/27 03:56:57;;;;;;;44.42;16.33;;;;;;;17.02;45.87;98683.06;4420154;32;20038;-67
2021/12/27 03:59:36;;;;;;;37.72;14.82;;;;;;;17.00;46.09;98686.44;4421704;32;20485;-67
2021/12/27 04:02:03;;;;;;;40.90;15.32;;;;;;;17.07;46.14;98694.41;4418751;32;20403;-67
2021/12/27 04:04:29;;;;;;;40.67;14.87;;;;;;;17.13;45.73;98680.91;4422678;32;20135;-67
2021/12/27 04:06:55;;;;;;;42.55;15.10;;;;;;;16.97;46.23;98673.31;4421386;32;20320;-70
2021/12/27 04:09:21;;;;;;;43.00;15.23;;;;;;;17.08;46.06;98681.72;4418182;32;20278;-68
2021/12/27 04:11:47;;;;;;;42.08;15.35;;;;;;;17.11;45.66;98672.13;4418317;32;20081;-69
2021/12/27 04:14:14;;;;;;;42.58;16.17;;;;;;;17.04;45.74;98661.38;4417614;32;20085;-67
2021/12/27 04:16:40;;;;;;;47.30;16.95;;;;;;;17.08;46.16;98656.16;4419256;32;20182;-68
2021/12/27 04:19:14;;;;;;;41.10;15.05;;;;;;;17.06;45.81;98655.91;4415606;32;20064;-68
2021/12/27 04:21:41;;;;;;;43.25;14.68;;;;;;;17.02;46.09;98655.44;4420790;32;20450;-69
2021/12/27 04:24:07;;;;;;;48.78;16.12;;;;;;;17.00;45.92;98652.34;4419419;32;20126;-68
2021/12/27 04:26:33;;;;;;;45.67;16.40;;;;;;;17.05;46.03;98657.22;4420321;32;20535;-68
2021/12/27 04:28:59;;;;;;;40.33;15.25;;;;;;;16.95;46.72;98655.25;4420637;32;20057;-69
2021/12/27 04:31:24;;;;;;;56.83;16.70;;;;;;;17.06;46.72;98653.06;4421739;32;20072;-68
2021/12/27 04:33:50;;;;;;;42.13;15.88;;;;;;;17.06;46.59;98647.38;4416939;32;20443;-69
2021/12/27 04:36:16;;;;;;;50.75;15.80;;;;;;;16.88;46.99;98653.75;4414562;32;20089;-68
2021/12/27 04:38:42;;;;;;;51.83;16.70;;;;;;;16.95;46.96;98650.34;4419876;32;20077;-69
2021/12/27 04:41:12;;;;;;;46.40;15.88;;;;;;;16.93;46.80;98643.66;4418545;32;20053;-68
2021/12/27 04:43:38;;;;;;;51.42;15.88;;;;;;;17.20;46.85;98646.19;4420641;32;20053;-68
2021/12/27 04:46:04;;;;;;;54.10;15.80;;;;;;;17.05;46.82;98634.47;4419797;32;20030;-68
2021/12/27 04:48:30;;;;;;;53.72;15.93;;;;;;;17.17;46.88;98635.13;4418986;32;20129;-68
2021/12/27 04:50:56;;;;;;;40.28;16.80;;;;;;;17.06;46.80;98629.59;4420965;32;20764;-68
2021/12/27 04:53:22;;;;;;;59.30;15.40;;;;;;;16.98;46.93;98631.47;4419369;32;20038;-69
2021/12/27 04:55:49;;;;;;;67.00;16.58;;;;;;;17.05;46.84;98625.19;4419760;32;20029;-69
2021/12/27 04:58:17;;;;;;;75.35;18.15;;;;;;;16.99;46.72;98613.87;4417504;32;20498;-69
2021/12/27 05:00:44;;;;;;;50.10;16.15;;;;;;;17.06;47.06;98615.38;4416211;32;20569;-69
2021/12/27 05:03:10;;;;;;;44.97;14.82;;;;;;;16.85;47.28;98617.16;4419026;32;20204;-69
2021/12/27 05:05:37;;;;;;;49.60;14.18;;;;;;;16.79;46.98;98614.37;4420019;32;20083;-69
2021/12/27 05:08:03;;;;;;;39.95;13.62;;;;;;;16.67;47.39;98604.41;4418549;32;20434;-68
2021/12/27 05:10:30;;;;;;;41.70;13.73;;;;;;;16.70;47.80;98613.94;4421374;32;20068;-69
2021/12/27 05:12:56;;;;;;;34.70;12.57;;;;;;;16.71;47.91;98621.94;4419328;32;20082;-69
2021/12/27 05:15:22;;;;;;;36.88;13.45;;;;;;;16.66;47.93;98613.47;4417890;32;20062;-69
2021/12/27 05:17:48;;;;;;;29.17;11.10;;;;;;;16.70;47.82;98608.25;4420273;32;20293;-69
2021/12/27 05:20:15;;;;;;;26.95;10.68;;;;;;;16.48;48.05;98603.56;4416508;32;20096;-69
2021/12/27 05:22:41;;;;;;;26.87;10.80;;;;;;;16.42;48.33;98604.88;4423663;32;20114;-68
2021/12/27 05:25:11;;;;;;;32.38;12.30;;;;;;;16.48;47.86;98606.41;4415584;32;20106;-68
2021/12/27 05:27:39;;;;;;;29.30;11.82;;;;;;;16.75;47.97;98608.19;4419274;32;20049;-68
2021/12/27 05:30:06;;;;;;;36.63;11.77;;;;;;;16.87;47.57;98595.41;4415948;32;20038;-68
2021/12/27 05:32:34;;;;;;;31.10;11.73;;;;;;;16.97;47.73;98593.00;4417099;32;20486;-68
2021/12/27 05:34:59;;;;;;;31.00;11.00;;;;;;;16.61;48.07;98588.72;4416319;32;20041;-68
2021/12/27 05:37:25;;;;;;;31.55;11.65;;;;;;;16.37;48.45;98582.97;4420076;32;21515;-68
2021/12/27 05:39:51;;;;;;;31.15;12.32;;;;;;;16.64;48.37;98584.81;4417135;32;20157;-68
2021/12/27 05:42:17;;;;;;;33.35;11.43;;;;;;;16.59;48.43;98580.75;4418196;32;20514;-68
2021/12/27 05:44:43;;;;;;;35.63;12.73;;;;;;;16.67;48.07;98578.09;4416039;32;20049;-68
2021/12/27 05:47:08;;;;;;;32.72;10.20;;;;;;;16.61;48.20;98575.31;4419910;32;20181;-68
2021/12/27 05:49:34;;;;;;;38.72;11.55;;;;;;;16.47;48.63;98573.63;4416793;32;20053;-68
2021/12/27 05:52:00;;;;;;;36.55;12.48;;;;;;;16.27;48.75;98582.56;4420744;32;20070;-68
2021/12/27 05:54:25;;;;;;;34.33;11.48;;;;;;;16.42;48.47;98565.94;4417323;32;20459;-68
2021/12/27 05:56:51;;;;;;;25.85;9.93;;;;;;;16.49;48.18;98568.19;4418804;32;20105;-68
2021/12/27 05:59:17;;;;;;;27.80;11.15;;;;;;;16.33;48.59;98556.97;4417317;32;20041;-68
2021/12/27 06:01:44;;;;;;;26.00;10.15;;;;;;;16.42;48.45;98559.47;4421397;32;20403;-68
2021/12/27 06:04:09;;;;;;;21.10;8.48;;;;;;;16.76;47.78;98558.63;4417093;32;20042;-68
2021/12/27 06:06:36;;;;;;;21.73;8.73;;;;;;;16.74;47.90;98549.88;4422686;32;20156;-68
2021/12/27 06:09:04;;;;;;;27.10;8.82;;;;;;;16.68;47.92;98552.00;4417194;32;20536;-68
2021/12/27 06:11:30;;;;;;;22.77;8.77;;;;;;;16.82;47.33;98552.87;4417072;32;20080;-68
2021/12/27 06:13:56;;;;;;;25.73;9.20;;;;;;;16.77;47.68;98545.97;4416288;32;20036;-68
2021/12/27 06:16:22;;;;;;;26.58;9.38;;;;;;;16.78;47.69;98544.66;4418467;32;20104;-68
2021/12/27 06:18:48;;;;;;;24.95;9.70;;;;;;;16.95;47.35;98535.94;4420334;32;20144;-68
2021/12/27 06:21:15;;;;;;;22.67;8.63;;;;;;;16.97;47.44;98533.34;4416711;32;20363;-68
2021/12/27 06:23:41;;;;;;;19.67;8.30;;;;;;;16.92;47.68;98534.16;4419649;32;20549;-68
2021/12/27 06:26:07;;;;;;;20.35;8.20;;;;;;;17.01;47.17;98536.63;4417842;32;20116;-68
2021/12/27 06:28:34;;;;;;;23.12;8.20;;;;;;;16.79;47.49;98540.53;4417838;32;20103;-68
2021/12/27 06:31:01;;;;;;;22.95;8.40;;;;;;;16.82;47.67;98535.84;4417430;32;20090;-68
2021/12/27 06:33:29;;;;;;;21.42;9.25;;;;;;;16.82;47.77;98539.47;4413438;32;20081;-68
2021/12/27 06:35:55;;;;;;;19.17;8.05;;;;;;;16.97;47.36;98528.41;4417961;32;20144;-68
2021/12/27 06:38:21;;;;;;;20.95;8.90;;;;;;;16.90;47.48;98528.22;4420650;32;20068;-68
2021/12/27 06:40:48;;;;;;;19.40;8.10;;;;;;;16.93;47.30;98521.47;4416242;32;20077;-68
2021/12/27 06:43:14;;;;;;;19.00;7.80;;;;;;;17.07;47.09;98528.81;4416758;32;20336;-69
2021/12/27 06:45:40;;;;;;;21.77;8.70;;;;;;;16.99;47.08;98528.66;4418957;32;20114;-69
2021/12/27 06:48:06;;;;;;;17.50;8.18;;;;;;;16.73;47.77;98522.78;4419367;32;20073;-69
2021/12/27 06:50:32;;;;;;;20.05;8.23;;;;;;;16.58;47.60;98525.25;4415796;32;20096;-69
2021/12/27 06:52:58;;;;;;;21.73;8.23;;;;;;;16.46;47.89;98517.38;4415401;32;20113;-69
2021/12/27 06:55:23;;;;;;;22.35;8.75;;;;;;;16.71;47.61;98518.91;4418669;32;20042;-69
2021/12/27 06:57:49;;;;;;;19.60;8.13;;;;;;;16.79;47.41;98509.28;4419439;32;20042;-68
2021/12/27 07:00:16;;;;;;;16.75;7.60;;;;;;;16.98;47.18;98495.09;4417809;32;20105;-69
2021/12/27 07:02:43;;;;;;;18.25;8.07;;;;;;;17.25;47.13;98508.16;4416650;32;20395;-69
2021/12/27 07:05:10;;;;;;;18.48;8.27;;;;;;;17.18;47.16;98503.09;4418625;32;20406;-68
2021/12/27 07:07:36;;;;;;;18.62;7.37;;;;;;;17.26;47.15;98499.09;4416534;32;20030;-68
2021/12/27 07:10:04;;;;;;;21.15;8.90;;;;;;;17.26;47.13;98499.09;4417244;32;20069;-68
2021/12/27 07:12:30;;;;;;;20.92;8.18;;;;;;;17.39;46.79;98499.16;4413603;32;20093;-68
2021/12/27 07:14:56;;;;;;;21.95;8.68;;;;;;;17.22;47.17;98506.41;4417889;32;20500;-68
2021/12/27 07:17:21;;;;;;;18.00;7.35;;;;;;;17.11;47.05;98493.09;4418047;32;20143;-68
2021/12/27 07:19:47;;;;;;;20.40;8.18;;;;;;;16.99;47.36;98497.38;4418361;32;20401;-68
2021/12/27 07:22:14;;;;;;;20.35;7.55;;;;;;;17.07;47.23;98495.50;4415441;32;20065;-68
2021/12/27 07:24:39;;;;;;;15.50;7.18;;;;;;;17.19;46.92;98494.03;4415921;32;20422;-68
2021/12/27 07:27:05;;;;;;;20.33;7.28;;;;;;;17.32;46.84;98499.00;4415525;32;20038;-68
2021/12/27 07:29:31;;;;;;;17.48;8.18;;;;;;;17.34;46.71;98499.25;4415610;32;20038;-68
2021/12/27 07:31:57;;;;;;;19.95;7.97;;;;;;;17.32;46.79;98499.78;4420751;32;20068;-68
2021/12/27 07:34:24;;;;;;;18.42;7.93;;;;;;;17.27;46.85;98499.84;4419305;32;21228;-68
2021/12/27 07:36:53;;;;;;;27.05;9.18;;;;;;;17.31;46.80;98497.50;4419787;32;20150;-68
2021/12/27 07:39:21;;;;;;;20.77;8.05;;;;;;;17.50;46.42;98493.34;4420746;32;20034;-68
2021/12/27 07:41:47;;;;;;;20.15;7.75;;;;;;;17.48;46.60;98503.72;4422140;32;20111;-68
2021/12/27 07:44:14;;;;;;;21.70;7.53;;;;;;;17.29;46.85;98503.72;4419541;32;20438;-68
2021/12/27 07:46:40;;;;;;;22.45;8.43;;;;;;;17.36;46.49;98491.72;4420171;32;20152;-68
2021/12/27 07:49:07;;;;;;;26.40;8.05;;;;;;;17.36;46.34;98488.88;4417275;32;20034;-68
2021/12/27 07:51:33;;;;;;;18.02;7.25;;;;;;;17.45;46.39;98490.56;4422281;32;20115;-68
2021/12/27 07:53:59;;;;;;;22.27;9.43;;;;;;;17.39;46.54;98490.63;4420899;32;20060;-68
2021/12/27 07:56:25;;;;;;;22.20;8.13;;;;;;;17.38;46.52;98489.12;4420029;32;20578;-68
2021/12/27 07:58:50;;;;;;;23.67;8.55;;;;;;;17.30;46.21;98487.41;4421193;32;20073;-68
2021/12/27 08:01:16;;;;;;;23.85;8.25;;;;;;;17.16;47.07;98488.66;4416318;32;20072;-68
2021/12/27 08:03:42;;;;;;;31.58;8.13;;;;;;;17.15;47.20;98489.97;4421514;32;20418;-68
2021/12/27 08:06:09;;;;;;;26.73;9.15;;;;;;;17.29;46.50;98492.34;4422547;32;20113;-68
2021/12/27 08:08:35;;;;;;;29.90;8.75;;;;;;;17.28;46.81;98496.47;4418904;32;20064;-68
2021/12/27 08:11:01;;;;;;;31.02;8.55;;;;;;;16.90;46.52;98497.75;4417505;32;20037;-68
2021/12/27 08:13:26;;;;;;;20.17;8.52;;;;;;;17.00;47.21;98498.16;4422880;32;20718;-68
2021/12/27 08:15:52;;;;;;;19.55;7.95;;;;;;;17.13;46.66;98490.50;4421786;32;20430;-68
2021/12/27 08:18:19;;;;;;;18.77;6.93;;;;;;;16.86;47.24;98485.94;4420107;32;20356;-68
2021/12/27 08:20:45;;;;;;;16.67;7.05;;;;;;;16.86;47.32;98493.69;4417951;32;20129;-68
2021/12/27 08:23:11;;;;;;;19.35;7.45;;;;;;;16.59;48.07;98487.03;4420564;32;20053;-68
2021/12/27 08:25:37;;;;;;;14.23;5.93;;;;;;;16.66;48.13;98485.69;4419458;32;20034;-67
2021/12/27 08:28:04;;;;;;;13.35;6.15;;;;;;;16.82;47.81;98479.81;4416664;32;20046;-67
2021/12/27 08:30:31;;;;;;;16.25;7.12;;;;;;;16.73;47.91;98476.56;4417696;32;20065;-67
2021/12/27 08:32:59;;;;;;;13.38;6.35;;;;;;;17.03;47.41;98485.72;4417289;32;20046;-67
2021/12/27 08:35:26;;;;;;;17.12;6.62;;;;;;;17.19;47.31;98481.88;4419313;32;20072;-68
2021/12/27 08:37:52;;;;;;;12.95;5.60;;;;;;;17.27;47.14;98488.47;4421546;32;20508;-68
2021/12/27 08:40:18;;;;;;;13.13;5.85;;;;;;;17.00;47.54;98495.31;4420925;32;20554;-68
2021/12/27 08:42:44;;;;;;;13.27;5.93;;;;;;;16.56;48.06;98496.62;4422845;32;20045;-67
2021/12/27 08:45:11;;;;;;;15.32;6.55;;;;;;;16.72;47.91;98497.75;4420261;32;20041;-67
2021/12/27 08:47:38;;;;;;;14.77;5.32;;;;;;;17.08;47.47;98499.84;4417931;32;21591;-67
2021/12/27 08:50:06;;;;;;;12.98;5.85;;;;;;;17.04;47.38;98493.72;4420367;32;20037;-67
2021/12/27 08:52:33;;;;;;;13.98;5.82;;;;;;;17.33;46.78;98498.47;4420470;32;20420;-67
2021/12/27 08:55:02;;;;;;;14.10;6.10;;;;;;;17.22;46.75;98492.19;4418350;32;20064;-67
2021/12/27 08:57:29;;;;;;;16.12;7.15;;;;;;;17.15;47.04;98487.88;4418413;32;20038;-67
2021/12/27 08:59:55;;;;;;;14.98;6.50;;;;;;;17.07;47.00;98486.97;4417432;32;20414;-68
2021/12/27 09:02:21;;;;;;;12.77;5.47;;;;;;;17.14;46.96;98494.09;4421720;32;20463;-67
2021/12/27 09:04:46;;;;;;;14.85;6.80;;;;;;;17.22;46.98;98497.88;4418682;32;20105;-67
2021/12/27 09:07:12;;;;;;;19.10;7.15;;;;;;;17.21;46.87;98508.47;4420457;32;20077;-67
2021/12/27 09:09:39;;;;;;;14.07;6.37;;;;;;;17.31;46.55;98489.72;4418682;32;20100;-68
2021/12/27 09:12:07;;;;;;;19.80;7.50;;;;;;;17.40;46.62;98502.78;4414565;32;20093;-68
2021/12/27 09:14:33;;;;;;;16.92;8.10;;;;;;;17.59;46.61;98504.34;4419069;32;20071;-68
2021/12/27 09:16:58;;;;;;;19.98;8.02;;;;;;;17.48;46.39;98510.19;4416801;32;20112;-68
2021/12/27 09:19:24;;;;;;;23.83;8.27;;;;;;;17.32;46.49;98493.31;4415895;32;20585;-68
2021/12/27 09:21:52;;;;;;;21.12;8.25;;;;;;;17.46;46.72;98494.97;4418117;32;20099;-68
2021/12/27 09:24:19;;;;;;;19.50;8.15;;;;;;;17.50;46.41;98501.09;4418837;32;20073;-68
2021/12/27 09:26:45;;;;;;;23.90;8.73;;;;;;;17.58;46.34;98497.09;4420660;32;20050;-68
2021/12/27 09:29:11;;;;;;;19.02;7.45;;;;;;;17.50;46.19;98489.75;4415872;32;20061;-68
2021/12/27 09:31:38;;;;;;;17.87;8.25;;;;;;;17.25;46.39;98476.91;4416854;32;20101;-68
2021/12/27 09:34:05;;;;;;;18.70;7.45;;;;;;;17.39;46.23;98478.47;4420360;32;20045;-68
2021/12/27 09:36:31;;;;;;;16.45;7.55;;;;;;;17.24;46.29;98473.28;4418154;32;20428;-68
2021/12/27 09:38:57;;;;;;;16.70;7.43;;;;;;;17.37;46.36;98470.50;4416239;32;20068;-68
2021/12/27 09:41:24;;;;;;;13.82;7.10;;;;;;;17.38;46.42;98460.69;4419192;32;20093;-68
2021/12/27 09:43:51;;;;;;;17.00;8.07;;;;;;;17.69;46.28;98451.44;4418651;32;20132;-68
2021/12/27 09:46:18;;;;;;;19.52;8.35;;;;;;;17.69;45.91;98454.28;4417274;32;20046;-68
2021/12/27 09:48:44;;;;;;;17.62;7.62;;;;;;;17.73;45.92;98443.34;4418340;32;20045;-68
2021/12/27 09:51:10;;;;;;;15.38;7.07;;;;;;;17.84;45.94;98439.53;4418597;32;20030;-68
2021/12/27 09:53:38;;;;;;;20.05;8.02;;;;;;;17.83;45.72;98435.16;4417505;32;20086;-68
2021/12/27 09:56:10;;;;;;;13.48;6.70;;;;;;;17.98;45.52;98441.09;4417370;32;20057;-68
2021/12/27 09:58:36;;;;;;;12.93;5.72;;;;;;;17.99;45.00;98439.00;4418649;32;20072;-68
2021/12/27 10:01:03;;;;;;;16.87;7.20;;;;;;;17.67;45.11;98433.34;4415261;32;20710;-68
2021/12/27 10:03:31;;;;;;;17.62;6.97;;;;;;;17.74;45.58;98432.72;4419144;32;20073;-68
2021/12/27 10:06:14;;;;;;;17.77;7.95;;;;;;;17.92;45.41;98431.13;4421215;32;20049;-68
2021/12/27 10:08:45;;;;;;;18.58;7.93;;;;;;;18.09;44.61;98440.13;4417595;32;20337;-68
2021/12/27 10:11:20;;;;;;;13.85;6.45;;;;;;;18.07;45.13;98446.34;4414728;32;20476;-68
2021/12/27 10:16:41;;;;;;;16.65;6.45;;;;;;;17.89;45.55;98459.34;3982674;32;15024211;-69
2021/12/27 10:19:09;;;;;;;16.12;6.85;;;;;;;17.89;45.55;98459.34;4434928;32;20405;-69
2021/12/27 10:21:36;;;;;;;17.27;7.57;;;;;;;17.52;46.06;98462.28;4433508;32;20347;-69
2021/12/27 10:24:04;;;;;;;21.77;8.07;;;;;;;17.25;46.29;98465.53;4435227;32;20085;-69
2021/12/27 10:26:32;;;;;;;24.90;7.93;;;;;;;17.40;46.32;98471.50;4433501;32;20030;-69
2021/12/27 10:29:19;;;;;;;23.05;8.15;;;;;;;17.30;46.58;98462.59;4430018;32;20033;-69
2021/12/27 10:42:43;;;;;;;16.77;7.25;;;;;;;18.30;45.65;98433.25;3979986;32;15073651;-70
2021/12/27 10:45:16;;;;;;;18.08;7.57;;;;;;;18.30;45.65;98433.25;4434517;32;20045;-69
2021/12/27 10:50:28;;;;;;;14.82;6.65;;;;;;;18.36;45.53;98421.75;3976876;32;15038119;-69
2021/12/27 10:55:38;;;;;;;20.70;7.50;;;;;;;18.14;45.61;98407.94;3978752;32;15024730;-69
2021/12/27 11:00:50;;;;;;;18.83;7.87;;;;;;;18.16;45.51;98406.09;3980628;32;15022385;-69
2021/12/27 11:06:02;;;;;;;19.67;8.05;;;;;;;18.02;46.24;98400.94;3982310;32;15025971;-69
2021/12/27 11:08:28;;;;;;;18.62;7.43;;;;;;;18.02;46.24;98400.94;4436187;32;20070;-69
2021/12/27 11:10:55;;;;;;;19.85;7.45;;;;;;;16.99;47.77;98400.00;4437600;32;20414;-69
2021/12/27 11:13:21;;;;;;;24.52;9.27;;;;;;;17.11;47.63;98399.31;4437012;32;20034;-69
2021/12/27 11:15:47;;;;;;;20.08;7.90;;;;;;;17.52;47.02;98379.81;4436607;32;20129;-69
2021/12/27 11:18:15;;;;;;;26.58;8.15;;;;;;;17.65;46.98;98379.09;4432141;32;20065;-69
2021/12/27 11:20:45;;;;;;;19.27;7.45;;;;;;;17.19;46.81;98376.75;4429262;32;20034;-69
2021/12/27 11:23:12;;;;;;;23.35;8.38;;;;;;;17.50;46.76;98376.78;4434873;32;20098;-69
2021/12/27 11:25:41;;;;;;;24.52;9.20;;;;;;;17.36;47.22;98369.47;4432254;32;20030;-69
2021/12/27 11:28:39;;;;;;;25.70;10.68;;;;;;;17.60;46.97;98368.59;4437037;32;20388;-69
2021/12/27 11:31:13;;;;;;;20.58;8.75;;;;;;;17.92;46.43;98368.53;4436392;32;20134;-69
2021/12/27 11:36:37;;;;;;;17.52;8.05;;;;;;;17.86;45.92;98360.84;3980344;32;15023615;-70
2021/12/27 11:39:25;;;;;;;19.05;7.57;;;;;;;17.85;45.98;98358.56;4429920;32;20075;-70
2021/12/27 11:47:21;;;;;;;20.55;8.23;;;;;;;18.53;44.34;98346.09;3980320;32;15024440;-69
2021/12/27 12:08:40;;;;;;;18.42;8.77;;;;;;;18.60;43.79;98314.09;3982394;32;15022330;-70
2021/12/27 12:11:10;;;;;;;18.65;8.35;;;;;;;18.60;44.51;98322.66;4430866;32;20476;-70
2021/12/27 12:16:18;;;;;;;24.45;9.65;;;;;;;19.14;43.61;98319.03;3952663;32;15739454;-70
2021/12/27 12:21:38;;;;;;;19.40;8.13;;;;;;;18.78;44.25;98298.91;4005235;31;15015406;-70